createdAt,value
2024-04-24T00:01:16.671Z,1.91
2024-04-24T00:03:18.790Z,1.71
2024-04-24T00:05:20.645Z,1.79
2024-04-24T00:07:22.353Z,1.77
2024-04-24T00:09:24.069Z,1.75
2024-04-24T00:11:28.469Z,1.69
2024-04-24T00:13:30.288Z,1.65
2024-04-24T00:15:31.992Z,1.67
2024-04-24T00:17:33.831Z,1.67
2024-04-24T00:19:35.656Z,1.62
2024-04-24T00:21:37.351Z,1.55
2024-04-24T00:23:39.002Z,1.55
2024-04-24T00:25:40.703Z,1.46
2024-04-24T00:27:45.000Z,1.47
2024-04-24T00:29:46.709Z,1.35
2024-04-24T00:31:48.374Z,1.33
2024-04-24T00:33:50.199Z,1.41
2024-04-24T00:35:51.907Z,1.39
2024-04-24T00:37:53.596Z,1.34
2024-04-24T00:39:55.288Z,1.38
2024-04-24T00:41:56.968Z,1.36
2024-04-24T00:44:01.301Z,1.31
2024-04-24T00:46:03.877Z,1.31
2024-04-24T00:48:07.606Z,1.22
2024-04-24T00:50:10.663Z,1.36
2024-04-24T00:52:12.452Z,1.49
2024-04-24T00:54:14.994Z,1.50
2024-04-24T00:56:16.987Z,1.29
2024-04-24T00:58:19.526Z,1.29
2024-04-24T01:00:23.948Z,1.27
2024-04-24T01:02:26.276Z,1.22
2024-04-24T01:04:28.098Z,1.28
2024-04-24T01:06:29.896Z,1.11
2024-04-24T01:08:31.933Z,1.20
2024-04-24T01:10:33.588Z,1.25
2024-04-24T01:12:35.329Z,1.33
2024-04-24T01:14:37.101Z,1.13
2024-04-24T01:16:42.921Z,1.37
2024-04-24T01:18:49.927Z,1.40
2024-04-24T01:20:53.965Z,1.27
2024-04-24T01:23:05.669Z,1.37
2024-04-24T01:25:13.922Z,1.26
2024-04-24T01:27:18.274Z,1.35
2024-04-24T01:29:20.116Z,1.31
2024-04-24T01:31:21.861Z,1.40
2024-04-24T01:33:23.594Z,1.45
2024-04-24T01:35:25.329Z,1.44
2024-04-24T01:37:27.135Z,1.47
2024-04-24T01:39:28.815Z,1.46
2024-04-24T01:41:30.487Z,1.58
2024-04-24T01:43:34.785Z,1.75
2024-04-24T01:45:36.453Z,1.60
2024-04-24T01:47:38.260Z,1.49
2024-04-24T01:49:40.019Z,1.57
2024-04-24T01:51:41.669Z,1.66
2024-04-24T01:53:43.432Z,1.81
2024-04-24T01:55:45.295Z,1.78
2024-04-24T01:57:47.128Z,1.83
2024-04-24T01:59:51.528Z,1.81
2024-04-24T02:01:53.232Z,1.62
2024-04-24T02:03:54.929Z,1.76
2024-04-24T02:05:56.609Z,1.97
2024-04-24T02:07:58.351Z,1.94
2024-04-24T02:10:00.166Z,1.90
2024-04-24T02:12:10.007Z,1.91
2024-04-24T02:14:17.564Z,1.93
2024-04-24T02:16:21.918Z,1.88
2024-04-24T02:18:23.635Z,1.95
2024-04-24T02:20:25.496Z,1.95
2024-04-24T02:22:27.228Z,1.87
2024-04-24T02:24:28.888Z,1.77
2024-04-24T02:26:30.560Z,1.80
2024-04-24T02:28:32.276Z,1.92
2024-04-24T02:30:33.953Z,2.12
2024-04-24T02:32:38.332Z,2.05
2024-04-24T02:34:40.061Z,2.08
2024-04-24T02:36:41.755Z,2.06
2024-04-24T02:38:43.432Z,2.04
2024-04-24T02:40:45.221Z,2.06
2024-04-24T02:42:46.945Z,2.03
2024-04-24T02:44:48.620Z,1.91
2024-04-24T02:46:50.300Z,1.93
2024-04-24T02:48:54.854Z,1.87
2024-04-24T02:50:56.622Z,2.05
2024-04-24T02:52:58.443Z,2.10
2024-04-24T02:55:00.178Z,2.05
2024-04-24T02:57:01.941Z,2.12
2024-04-24T02:59:03.676Z,2.24
2024-04-24T03:01:12.267Z,2.17
2024-04-24T03:03:14.063Z,2.32
2024-04-24T03:05:18.571Z,2.33
2024-04-24T03:07:20.326Z,2.19
2024-04-24T03:09:21.972Z,2.29
2024-04-24T03:11:23.748Z,2.24
2024-04-24T03:13:25.495Z,2.23
2024-04-24T03:15:27.167Z,2.27
2024-04-24T03:17:28.978Z,2.36
2024-04-24T03:19:30.711Z,2.16
2024-04-24T03:21:35.037Z,2.06
2024-04-24T03:23:38.034Z,2.16
2024-04-24T03:25:39.812Z,2.08
2024-04-24T03:27:41.568Z,2.11
2024-04-24T03:29:43.231Z,2.06
2024-04-24T03:31:44.915Z,2.04
2024-04-24T03:33:46.730Z,2.04
2024-04-24T03:35:48.427Z,2.02
2024-04-24T03:37:52.766Z,2.04
2024-04-24T03:39:54.483Z,2.09
2024-04-24T03:41:56.180Z,2.13
2024-04-24T03:43:57.940Z,2.17
2024-04-24T03:45:59.613Z,2.01
2024-04-24T03:48:01.380Z,2.00
2024-04-24T03:50:03.151Z,2.02
2024-04-24T03:52:05.186Z,2.15
2024-04-24T03:54:09.505Z,2.29
2024-04-24T03:56:11.231Z,2.19
2024-04-24T03:58:12.931Z,2.16
2024-04-24T04:00:14.985Z,2.15
2024-04-24T04:02:16.778Z,2.15
2024-04-24T04:04:18.561Z,2.15
2024-04-24T04:06:20.301Z,2.00
2024-04-24T04:08:22.002Z,2.03
2024-04-24T04:10:26.411Z,1.95
2024-04-24T04:12:28.073Z,1.99
2024-04-24T04:14:29.890Z,1.86
2024-04-24T04:16:31.570Z,1.92
2024-04-24T04:18:33.324Z,1.97
2024-04-24T04:20:35.137Z,1.87
2024-04-24T04:22:39.094Z,1.94
2024-04-24T04:24:42.026Z,1.95
2024-04-24T04:26:46.326Z,1.88
2024-04-24T04:28:48.006Z,1.77
2024-04-24T04:30:50.082Z,1.74
2024-04-24T04:32:51.819Z,1.76
2024-04-24T04:34:53.930Z,1.79
2024-04-24T04:36:55.663Z,1.79
2024-04-24T04:38:57.510Z,1.69
2024-04-24T04:40:59.184Z,1.75
2024-04-24T04:43:03.746Z,1.96
2024-04-24T04:45:06.576Z,2.01
2024-04-24T04:47:08.381Z,2.05
2024-04-24T04:49:10.171Z,2.09
2024-04-24T04:51:11.831Z,1.97
2024-04-24T04:53:13.665Z,1.79
2024-04-24T04:55:15.374Z,1.70
2024-04-24T04:57:17.035Z,1.81
2024-04-24T04:59:21.465Z,1.62
2024-04-24T05:01:23.167Z,1.63
2024-04-24T05:03:24.882Z,1.61
2024-04-24T05:05:26.618Z,1.68
2024-04-24T05:07:28.547Z,1.69
2024-04-24T05:09:30.329Z,1.60
2024-04-24T05:11:32.079Z,1.76
2024-04-24T05:13:33.812Z,1.84
2024-04-24T05:15:38.648Z,1.85
2024-04-24T05:17:40.590Z,2.09
2024-04-24T05:19:42.455Z,1.95
2024-04-24T05:21:44.126Z,1.97
2024-04-24T05:23:45.779Z,2.55
2024-04-24T05:25:47.449Z,3.02
2024-04-24T05:27:49.159Z,3.11
2024-04-24T05:29:50.848Z,3.29
2024-04-24T05:31:55.199Z,3.49
2024-04-24T05:33:57.064Z,3.24
2024-04-24T05:35:58.837Z,3.13
2024-04-24T05:38:00.644Z,3.08
2024-04-24T05:40:02.438Z,2.93
2024-04-24T05:42:04.224Z,2.68
2024-04-24T05:44:05.929Z,2.85
2024-04-24T05:46:07.631Z,2.86
2024-04-24T05:48:12.036Z,2.75
2024-04-24T05:50:13.875Z,2.85
2024-04-24T05:52:15.601Z,2.81
2024-04-24T05:54:17.335Z,2.93
2024-04-24T05:56:19.052Z,2.94
2024-04-24T05:58:20.817Z,3.04
2024-04-24T06:00:22.495Z,2.91
2024-04-24T06:02:25.648Z,2.78
2024-04-24T06:04:30.101Z,2.78
2024-04-24T06:06:31.837Z,2.73
2024-04-24T06:08:33.491Z,2.72
2024-04-24T06:10:37.563Z,2.86
2024-04-24T06:12:39.201Z,2.87
2024-04-24T06:14:40.878Z,3.12
2024-04-24T06:16:44.307Z,3.11
2024-04-24T06:18:47.737Z,3.13
2024-04-24T06:20:52.246Z,3.03
2024-04-24T06:22:53.983Z,3.11
2024-04-24T06:24:55.713Z,3.41
2024-04-24T06:26:57.444Z,3.53
2024-04-24T06:28:59.134Z,3.46
2024-04-24T06:31:00.843Z,3.34
2024-04-24T06:33:05.840Z,3.53
2024-04-24T06:35:07.775Z,3.63
2024-04-24T06:37:12.207Z,3.62
2024-04-24T06:39:13.895Z,3.58
2024-04-24T06:41:15.985Z,3.70
2024-04-24T06:43:17.747Z,3.61
2024-04-24T06:45:21.110Z,3.61
2024-04-24T06:47:22.810Z,3.64
2024-04-24T06:49:24.591Z,3.69
2024-04-24T06:51:28.391Z,3.72
2024-04-24T06:53:36.769Z,3.81
2024-04-24T06:55:38.495Z,3.77
2024-04-24T06:57:47.149Z,3.65
2024-04-24T06:59:48.832Z,3.66
2024-04-24T07:01:50.949Z,3.65
2024-04-24T07:03:53.184Z,3.64
2024-04-24T07:05:55.073Z,3.79
2024-04-24T07:07:56.814Z,3.85
2024-04-24T07:10:01.217Z,3.90
2024-04-24T07:12:03.046Z,3.82
2024-04-24T07:14:04.890Z,3.90
2024-04-24T07:16:07.083Z,4.08
2024-04-24T07:18:08.822Z,4.08
2024-04-24T07:20:10.766Z,4.15
2024-04-24T07:22:12.423Z,4.10
2024-04-24T07:24:14.105Z,4.19
2024-04-24T07:26:19.147Z,4.09
2024-04-24T07:28:21.693Z,4.17
2024-04-24T07:30:23.358Z,3.83
2024-04-24T07:32:25.096Z,3.89
2024-04-24T07:34:26.824Z,3.82
2024-04-24T07:36:28.498Z,3.93
2024-04-24T07:38:30.185Z,3.90
2024-04-24T07:40:31.968Z,3.91
2024-04-24T07:42:36.616Z,4.01
2024-04-24T07:44:38.271Z,4.03
2024-04-24T07:46:39.953Z,4.06
2024-04-24T07:48:41.812Z,4.13
2024-04-24T07:50:43.599Z,4.14
2024-04-24T07:52:45.264Z,4.24
2024-04-24T07:54:46.983Z,4.30
2024-04-24T07:56:48.688Z,4.30
2024-04-24T07:58:53.099Z,4.29
2024-04-24T08:00:54.883Z,4.26
2024-04-24T08:02:56.645Z,4.31
2024-04-24T08:04:58.323Z,4.21
2024-04-24T08:07:00.042Z,4.29
2024-04-24T08:09:01.705Z,4.31
2024-04-24T08:11:04.484Z,4.38
2024-04-24T08:13:06.301Z,4.53
2024-04-24T08:15:10.698Z,4.45
2024-04-24T08:17:12.408Z,4.57
2024-04-24T08:19:14.106Z,4.54
2024-04-24T08:21:15.752Z,4.67
2024-04-24T08:23:21.667Z,4.55
2024-04-24T08:25:25.726Z,4.40
2024-04-24T08:27:28.452Z,4.49
2024-04-24T08:29:31.065Z,4.39
2024-04-24T08:31:36.463Z,4.43
2024-04-24T08:33:38.367Z,4.20
2024-04-24T08:35:40.189Z,4.28
2024-04-24T08:37:41.849Z,4.30
2024-04-24T08:39:43.486Z,4.46
2024-04-24T08:41:45.970Z,4.44
2024-04-24T08:43:49.761Z,4.41
2024-04-24T08:45:52.812Z,4.40
2024-04-24T08:47:58.493Z,4.62
2024-04-24T08:50:02.796Z,4.71
2024-04-24T08:52:06.466Z,4.55
2024-04-24T08:54:12.212Z,4.47
2024-04-24T08:56:17.082Z,4.45
2024-04-24T08:58:24.451Z,4.46
2024-04-24T09:00:30.952Z,4.30
2024-04-24T09:02:34.153Z,4.12
2024-04-24T09:04:40.546Z,4.16
2024-04-24T09:06:43.698Z,4.26
2024-04-24T09:08:47.105Z,4.27
2024-04-24T09:10:50.015Z,4.38
2024-04-24T09:12:53.287Z,4.42
2024-04-24T09:14:54.984Z,4.59
2024-04-24T09:16:57.705Z,4.46
2024-04-24T09:18:59.945Z,4.48
2024-04-24T09:21:05.047Z,4.43
2024-04-24T09:23:06.963Z,4.27
2024-04-24T09:25:08.703Z,4.20
2024-04-24T09:27:10.397Z,3.86
2024-04-24T09:29:12.281Z,4.08
2024-04-24T09:31:13.998Z,4.10
2024-04-24T09:33:16.062Z,4.22
2024-04-24T09:35:18.071Z,4.19
2024-04-24T09:37:23.421Z,4.16
2024-04-24T09:39:25.814Z,4.14
2024-04-24T09:41:27.623Z,4.13
2024-04-24T09:43:29.914Z,4.10
2024-04-24T09:45:32.524Z,4.15
2024-04-24T09:47:34.318Z,4.09
2024-04-24T09:49:38.049Z,4.11
2024-04-24T09:51:39.753Z,4.04
2024-04-24T09:53:44.110Z,3.94
2024-04-24T09:55:54.436Z,4.23
2024-04-24T09:58:00.449Z,4.22
2024-04-24T10:00:02.666Z,4.33
2024-04-24T10:02:05.813Z,4.34
2024-04-24T10:04:08.231Z,4.45
2024-04-24T10:06:13.259Z,4.45
2024-04-24T10:08:19.314Z,4.46
2024-04-24T10:10:33.896Z,4.37
2024-04-24T10:12:39.164Z,4.38
2024-04-24T10:14:52.016Z,4.48
2024-04-24T10:16:56.286Z,4.52
2024-04-24T10:19:00.640Z,4.47
2024-04-24T10:21:03.055Z,4.30
2024-04-24T10:23:06.025Z,4.31
2024-04-24T10:25:08.825Z,4.24
2024-04-24T10:27:14.306Z,4.13
2024-04-24T10:29:19.075Z,4.21
2024-04-24T10:31:22.337Z,4.35
2024-04-24T10:33:26.190Z,4.16
2024-04-24T10:35:28.246Z,4.37
2024-04-24T10:37:30.176Z,4.46
2024-04-24T10:39:41.294Z,4.56
2024-04-24T10:41:44.827Z,4.36
2024-04-24T10:43:49.788Z,4.35
2024-04-24T10:45:54.131Z,4.34
2024-04-24T10:47:57.424Z,4.19
2024-04-24T10:50:00.061Z,4.29
2024-04-24T10:52:01.844Z,4.34
2024-04-24T10:54:13.358Z,4.22
2024-04-24T10:56:16.742Z,4.42
2024-04-24T10:58:21.244Z,4.45
2024-04-24T11:00:30.835Z,4.52
2024-04-24T11:02:32.696Z,4.53
2024-04-24T11:04:34.466Z,4.54
2024-04-24T11:06:36.253Z,4.57
2024-04-24T11:08:38.002Z,4.68
2024-04-24T11:10:39.807Z,4.81
2024-04-24T11:12:42.223Z,4.79
2024-04-24T11:14:44.221Z,4.92
2024-04-24T11:16:57.991Z,4.65
2024-04-24T11:18:59.857Z,4.62
2024-04-24T11:21:01.608Z,4.87
2024-04-24T11:23:09.710Z,4.81
2024-04-24T11:25:12.718Z,4.89
2024-04-24T11:27:14.458Z,4.88
2024-04-24T11:29:16.141Z,4.99
2024-04-24T11:31:17.894Z,5.03
2024-04-24T11:33:23.565Z,5.12
2024-04-24T11:35:26.255Z,5.20
2024-04-24T11:37:28.211Z,4.94
2024-04-24T11:39:29.890Z,4.89
2024-04-24T11:41:36.076Z,4.76
2024-04-24T11:43:37.786Z,4.96
2024-04-24T11:45:39.502Z,4.90
2024-04-24T11:47:41.371Z,5.08
2024-04-24T11:49:50.367Z,5.02
2024-04-24T11:51:52.272Z,5.05
2024-04-24T11:53:55.020Z,5.10
2024-04-24T11:55:56.752Z,5.10
2024-04-24T11:57:59.539Z,5.25
2024-04-24T12:00:04.198Z,5.17
2024-04-24T12:02:05.974Z,5.14
2024-04-24T12:04:08.212Z,4.79
2024-04-24T12:06:13.043Z,4.82
2024-04-24T12:08:14.852Z,4.80
2024-04-24T12:10:23.200Z,5.00
2024-04-24T12:12:25.110Z,5.13
2024-04-24T12:14:29.955Z,5.21
2024-04-24T12:16:36.457Z,5.20
2024-04-24T12:18:38.178Z,5.31
2024-04-24T12:20:40.023Z,5.08
2024-04-24T12:22:44.428Z,5.09
2024-04-24T12:24:46.111Z,5.21
2024-04-24T12:26:47.828Z,5.11
2024-04-24T12:28:51.946Z,5.18
2024-04-24T12:30:53.437Z,5.23
2024-04-24T12:32:55.241Z,5.14
2024-04-24T12:34:57.089Z,5.39
2024-04-24T12:36:58.820Z,5.75
2024-04-24T12:39:03.483Z,6.05
2024-04-24T12:41:06.195Z,6.24
2024-04-24T12:43:07.915Z,6.32
2024-04-24T12:45:09.887Z,6.38
2024-04-24T12:47:11.666Z,6.38
2024-04-24T12:49:13.354Z,6.43
2024-04-24T12:51:15.066Z,6.36
2024-04-24T12:53:16.776Z,6.33
2024-04-24T12:55:21.088Z,6.18
2024-04-24T12:57:22.755Z,6.39
2024-04-24T12:59:26.390Z,6.28
2024-04-24T13:01:28.192Z,6.28
2024-04-24T13:03:30.034Z,6.29
2024-04-24T13:05:34.182Z,6.28
2024-04-24T13:07:35.954Z,6.44
2024-04-24T13:09:37.621Z,6.54
2024-04-24T13:11:44.990Z,6.49
2024-04-24T13:13:46.716Z,6.43
2024-04-24T13:15:48.383Z,6.32
2024-04-24T13:17:52.995Z,6.21
2024-04-24T13:19:54.911Z,6.18
2024-04-24T13:21:56.603Z,6.11
2024-04-24T13:23:58.295Z,5.87
2024-04-24T13:26:00.190Z,5.72
2024-04-24T13:28:05.071Z,5.55
2024-04-24T13:30:07.506Z,5.45
2024-04-24T13:32:09.185Z,5.16
2024-04-24T13:34:10.909Z,5.17
2024-04-24T13:36:12.573Z,4.93
2024-04-24T13:38:14.355Z,4.81
2024-04-24T13:40:16.088Z,4.84
2024-04-24T13:42:17.739Z,4.90
2024-04-24T13:44:23.941Z,4.92
2024-04-24T13:46:25.666Z,4.48
2024-04-24T13:48:31.282Z,3.99
2024-04-24T13:50:34.603Z,3.36
2024-04-24T13:52:36.514Z,3.39
2024-04-24T13:54:38.192Z,3.56
2024-04-24T13:56:40.012Z,3.35
2024-04-24T13:58:41.884Z,3.47
2024-04-24T14:00:47.633Z,3.44
2024-04-24T14:02:49.419Z,3.59
2024-04-24T14:04:51.263Z,3.56
2024-04-24T14:06:52.959Z,3.84
2024-04-24T14:08:54.655Z,3.64
2024-04-24T14:10:56.468Z,3.88
2024-04-24T14:12:58.397Z,4.08
2024-04-24T14:15:00.090Z,3.92
2024-04-24T14:17:04.550Z,3.96
2024-04-24T14:19:06.290Z,4.13
2024-04-24T14:21:07.973Z,3.91
2024-04-24T14:23:09.843Z,4.22
2024-04-24T14:25:11.585Z,4.42
2024-04-24T14:27:13.314Z,4.73
2024-04-24T14:29:15.105Z,4.96
2024-04-24T14:31:16.867Z,4.97
2024-04-24T14:33:21.293Z,4.83
2024-04-24T14:35:23.136Z,5.06
2024-04-24T14:37:24.839Z,5.01
2024-04-24T14:39:26.703Z,5.21
2024-04-24T14:41:28.414Z,5.11
2024-04-24T14:43:30.152Z,5.31
2024-04-24T14:45:31.844Z,5.52
2024-04-24T14:47:33.652Z,5.76
2024-04-24T14:49:37.987Z,6.30
2024-04-24T14:51:39.981Z,6.77
2024-04-24T14:53:41.651Z,7.18
2024-04-24T14:55:43.313Z,7.09
2024-04-24T14:57:45.007Z,7.64
2024-04-24T14:59:46.650Z,8.04
2024-04-24T15:01:48.429Z,8.29
2024-04-24T15:03:50.172Z,8.38
2024-04-24T15:05:54.541Z,8.66
2024-04-24T15:07:56.201Z,8.72
2024-04-24T15:09:57.870Z,8.64
2024-04-24T15:11:59.674Z,8.29
2024-04-24T15:14:01.541Z,7.84
2024-04-24T15:16:03.347Z,7.83
2024-04-24T15:18:05.957Z,7.59
2024-04-24T15:20:08.426Z,7.06
2024-04-24T15:22:12.762Z,6.87
2024-04-24T15:24:14.493Z,7.08
2024-04-24T15:26:16.337Z,6.81
2024-04-24T15:28:18.047Z,6.78
2024-04-24T15:30:19.693Z,6.83
2024-04-24T15:32:21.426Z,6.66
2024-04-24T15:34:23.248Z,6.91
2024-04-24T15:36:25.034Z,6.93
2024-04-24T15:38:29.451Z,6.78
2024-04-24T15:40:31.126Z,6.77
2024-04-24T15:42:32.838Z,6.58
2024-04-24T15:44:34.562Z,6.39
2024-04-24T15:46:36.234Z,6.15
2024-04-24T15:48:38.394Z,6.04
2024-04-24T15:50:40.118Z,5.96
2024-04-24T15:52:41.797Z,5.95
2024-04-24T15:54:46.109Z,6.14
2024-04-24T15:56:47.826Z,5.86
2024-04-24T15:58:49.581Z,5.74
2024-04-24T16:00:51.281Z,5.71
2024-04-24T16:02:53.007Z,5.44
2024-04-24T16:04:54.743Z,5.03
2024-04-24T16:06:56.403Z,5.22
2024-04-24T16:08:58.064Z,4.86
2024-04-24T16:11:02.524Z,4.90
2024-04-24T16:13:04.745Z,4.94
2024-04-24T16:15:07.186Z,4.29
2024-04-24T16:17:09.227Z,4.28
2024-04-24T16:19:11.108Z,3.90
2024-04-24T16:21:13.008Z,3.95
2024-04-24T16:23:14.880Z,3.68
2024-04-24T16:25:16.620Z,2.99
2024-04-24T16:27:20.912Z,2.69
2024-04-24T16:29:22.687Z,2.42
2024-04-24T16:31:24.473Z,2.30
2024-04-24T16:33:26.227Z,2.28
2024-04-24T16:35:28.104Z,2.33
2024-04-24T16:37:30.043Z,2.51
2024-04-24T16:39:31.780Z,2.44
2024-04-24T16:41:33.528Z,2.76
2024-04-24T16:43:37.861Z,2.93
2024-04-24T16:45:39.561Z,3.14
2024-04-24T16:47:41.293Z,3.73
2024-04-24T16:49:42.992Z,4.37
2024-04-24T16:51:44.810Z,5.11
2024-04-24T16:53:46.626Z,5.60
2024-04-24T16:55:50.315Z,5.97
2024-04-24T16:57:52.128Z,5.75
2024-04-24T16:59:56.485Z,6.11
2024-04-24T17:01:58.184Z,6.50
2024-04-24T17:03:59.914Z,6.39
2024-04-24T17:06:01.594Z,6.47
2024-04-24T17:08:03.522Z,6.55
2024-04-24T17:10:06.295Z,6.53
2024-04-24T17:12:08.132Z,6.40
2024-04-24T17:14:10.157Z,5.92
2024-04-24T17:16:14.505Z,5.75
2024-04-24T17:18:16.332Z,5.61
2024-04-24T17:20:18.391Z,5.55
2024-04-24T17:22:20.319Z,5.43
2024-04-24T17:24:22.050Z,5.47
2024-04-24T17:26:30.276Z,5.42
2024-04-24T17:28:38.258Z,5.65
2024-04-24T17:30:40.003Z,5.46
2024-04-24T17:32:44.427Z,5.44
2024-04-24T17:34:46.161Z,5.40
2024-04-24T17:36:47.865Z,5.49
2024-04-24T17:38:49.600Z,5.48
2024-04-24T17:40:51.277Z,5.49
2024-04-24T17:42:53.028Z,5.30
2024-04-24T17:44:54.711Z,5.27
2024-04-24T17:46:56.527Z,5.05
2024-04-24T17:49:00.844Z,5.04
2024-04-24T17:51:02.502Z,4.96
2024-04-24T17:53:04.588Z,4.92
2024-04-24T17:55:06.580Z,4.68
2024-04-24T17:57:08.334Z,4.53
2024-04-24T17:59:10.034Z,4.56
2024-04-24T18:01:11.777Z,4.56
2024-04-24T18:03:13.619Z,4.51
2024-04-24T18:05:18.893Z,4.43
2024-04-24T18:07:21.385Z,4.30
2024-04-24T18:09:23.055Z,4.28
2024-04-24T18:11:24.997Z,4.20
2024-04-24T18:13:26.905Z,4.11
2024-04-24T18:15:28.557Z,4.13
2024-04-24T18:17:30.351Z,4.23
2024-04-24T18:19:32.248Z,4.19
2024-04-24T18:21:39.882Z,4.24
2024-04-24T18:23:42.857Z,4.10
2024-04-24T18:25:44.563Z,4.06
2024-04-24T18:27:46.255Z,4.19
2024-04-24T18:29:47.936Z,4.13
2024-04-24T18:31:49.598Z,3.98
2024-04-24T18:33:51.322Z,3.85
2024-04-24T18:35:53.225Z,3.76
2024-04-24T18:37:57.622Z,3.80
2024-04-24T18:39:59.424Z,3.79
2024-04-24T18:42:01.224Z,3.74
2024-04-24T18:44:03.009Z,3.62
2024-04-24T18:46:04.890Z,3.60
2024-04-24T18:48:10.886Z,3.42
2024-04-24T18:50:13.057Z,3.60
2024-04-24T18:52:14.760Z,3.46
2024-04-24T18:54:19.054Z,3.38
2024-04-24T18:56:20.767Z,3.39
2024-04-24T18:58:22.495Z,3.23
2024-04-24T19:00:24.380Z,3.25
2024-04-24T19:02:26.416Z,3.11
2024-04-24T19:04:28.284Z,3.27
2024-04-24T19:06:31.898Z,3.24
2024-04-24T19:08:35.036Z,3.08
2024-04-24T19:10:39.376Z,3.21
2024-04-24T19:12:41.098Z,3.13
2024-04-24T19:14:42.903Z,3.13
2024-04-24T19:16:44.633Z,3.25
2024-04-24T19:18:46.335Z,3.12
2024-04-24T19:20:48.098Z,3.05
2024-04-24T19:22:49.840Z,3.12
2024-04-24T19:24:51.504Z,3.12
2024-04-24T19:26:55.826Z,3.22
2024-04-24T19:28:57.547Z,3.21
2024-04-24T19:30:59.277Z,2.93
2024-04-24T19:33:01.135Z,2.82
2024-04-24T19:35:03.320Z,3.02
2024-04-24T19:37:05.446Z,3.07
2024-04-24T19:39:07.225Z,2.71
2024-04-24T19:41:12.669Z,2.88
2024-04-24T19:43:17.136Z,2.85
2024-04-24T19:45:18.859Z,2.90
2024-04-24T19:47:20.729Z,2.85
2024-04-24T19:49:22.464Z,2.97
2024-04-24T19:51:24.214Z,3.02
2024-04-24T19:53:26.097Z,2.81
2024-04-24T19:55:27.840Z,2.69
2024-04-24T19:57:29.483Z,2.77
2024-04-24T19:59:33.939Z,2.70
2024-04-24T20:01:35.737Z,2.65
2024-04-24T20:03:37.717Z,2.44
2024-04-24T20:05:39.512Z,2.67
2024-04-24T20:07:41.220Z,2.67
2024-04-24T20:09:43.051Z,2.80
2024-04-24T20:11:44.895Z,2.66
2024-04-24T20:13:46.651Z,2.64
2024-04-24T20:15:50.966Z,2.57
2024-04-24T20:17:52.775Z,2.66
2024-04-24T20:19:54.516Z,2.68
2024-04-24T20:21:56.180Z,2.62
2024-04-24T20:23:57.962Z,2.64
2024-04-24T20:25:59.623Z,2.42
2024-04-24T20:28:01.410Z,2.48
2024-04-24T20:30:03.337Z,2.51
2024-04-24T20:32:07.967Z,2.41
2024-04-24T20:34:09.750Z,2.37
2024-04-24T20:36:13.364Z,2.57
2024-04-24T20:38:15.040Z,2.59
2024-04-24T20:40:16.761Z,2.51
2024-04-24T20:42:18.466Z,2.56
2024-04-24T20:44:20.230Z,2.42
2024-04-24T20:46:21.896Z,2.43
2024-04-24T20:48:26.342Z,2.40
2024-04-24T20:50:28.214Z,2.24
2024-04-24T20:52:29.909Z,2.40
2024-04-24T20:54:31.579Z,2.45
2024-04-24T20:56:33.334Z,2.39
2024-04-24T20:58:35.075Z,2.41
2024-04-24T21:00:36.786Z,2.31
2024-04-24T21:02:38.551Z,2.19
2024-04-24T21:04:42.991Z,2.25
2024-04-24T21:06:44.710Z,2.40
2024-04-24T21:08:48.938Z,2.37
2024-04-24T21:10:51.524Z,2.26
2024-04-24T21:12:53.167Z,2.21
2024-04-24T21:14:54.871Z,2.31
2024-04-24T21:16:56.545Z,2.29
2024-04-24T21:18:58.481Z,2.37
2024-04-24T21:21:03.164Z,2.29
2024-04-24T21:23:05.891Z,2.33
2024-04-24T21:25:07.957Z,2.28
2024-04-24T21:27:12.126Z,2.45
2024-04-24T21:29:15.898Z,2.32
2024-04-24T21:31:17.626Z,2.27
2024-04-24T21:33:19.432Z,2.21
2024-04-24T21:35:21.175Z,2.21
2024-04-24T21:37:25.516Z,2.15
2024-04-24T21:39:27.171Z,2.33
2024-04-24T21:41:28.977Z,2.16
2024-04-24T21:43:30.662Z,2.20
2024-04-24T21:45:32.335Z,2.13
2024-04-24T21:47:34.168Z,2.38
2024-04-24T21:49:35.901Z,2.27
2024-04-24T21:51:37.749Z,2.36
2024-04-24T21:53:42.067Z,2.10
2024-04-24T21:55:43.855Z,2.16
2024-04-24T21:57:49.403Z,2.27
2024-04-24T21:59:51.134Z,2.06
2024-04-24T22:01:52.806Z,2.29
2024-04-24T22:03:54.586Z,2.21
2024-04-24T22:05:56.308Z,2.32
2024-04-24T22:07:57.993Z,2.36
2024-04-24T22:10:02.477Z,2.37
2024-04-24T22:12:04.711Z,2.25
2024-04-24T22:14:06.508Z,2.37
2024-04-24T22:16:08.263Z,2.26
2024-04-24T22:18:10.011Z,2.30
2024-04-24T22:20:11.770Z,2.37
2024-04-24T22:22:13.469Z,2.47
2024-04-24T22:24:15.166Z,2.56
2024-04-24T22:26:19.502Z,2.49
2024-04-24T22:28:21.364Z,2.47
2024-04-24T22:30:23.078Z,2.41
2024-04-24T22:32:26.000Z,2.26
2024-04-24T22:34:27.730Z,2.34
2024-04-24T22:36:29.453Z,2.33
2024-04-24T22:38:31.222Z,2.28
2024-04-24T22:40:32.949Z,2.33
2024-04-24T22:42:37.283Z,2.23
2024-04-24T22:44:38.937Z,2.38
2024-04-24T22:46:40.594Z,2.42
2024-04-24T22:48:42.950Z,2.53
2024-04-24T22:50:44.830Z,2.60
2024-04-24T22:52:47.211Z,2.56
2024-04-24T22:55:00.425Z,2.61
2024-04-24T22:57:02.209Z,2.64
2024-04-24T22:59:06.498Z,2.68
2024-04-24T23:01:08.210Z,2.74
2024-04-24T23:03:10.028Z,2.63
2024-04-24T23:05:11.959Z,2.71
2024-04-24T23:07:13.838Z,2.63
2024-04-24T23:09:15.790Z,2.63
2024-04-24T23:11:17.505Z,2.62
2024-04-24T23:13:20.412Z,2.70
2024-04-24T23:15:24.714Z,2.61
2024-04-24T23:17:26.440Z,2.63
2024-04-24T23:19:28.165Z,2.71
2024-04-24T23:21:29.844Z,2.78
2024-04-24T23:23:31.575Z,2.77
2024-04-24T23:25:33.249Z,2.79
2024-04-24T23:27:34.901Z,2.82
2024-04-24T23:29:36.765Z,2.90
2024-04-24T23:31:41.177Z,2.91
2024-04-24T23:33:42.908Z,2.78
2024-04-24T23:35:44.601Z,2.76
2024-04-24T23:37:46.329Z,2.83
2024-04-24T23:39:48.021Z,2.66
2024-04-24T23:41:49.716Z,2.68
2024-04-24T23:43:51.406Z,2.66
2024-04-24T23:45:53.143Z,2.79
2024-04-24T23:47:57.495Z,2.58
2024-04-24T23:49:59.310Z,2.82
2024-04-24T23:52:01.002Z,2.75
2024-04-24T23:54:02.778Z,2.71
2024-04-24T23:56:05.073Z,2.67
2024-04-24T23:58:06.785Z,2.66
